TAM3969 SBSI-SBBR
Flight info
| Callsign | TAM3969 |
|---|---|
| Flight time | 1h 18m |
| Altitude | 37000 |
| Route | OBKAV UZ40 DIBUX UZ98 ELISA |
| Aircraft | A20N/M-SDE2E3FGHIRWXY/LB1 |
Departure
| Time | 2026-04-28 20:33 |
|---|---|
| Airport | Presidente João Batista Figueiredo Airport (SBSI) |
Arrival
| Time | 2026-04-28 21:52 |
|---|---|
| Airport | Presidente Juscelino Kubitschek International Airport (SBBR) |
| Time | Latitude | Longitude | Altitude | Speed | Heading |
|---|---|---|---|---|---|
| 2026-04-28 20:01 | -11.87929 | -55.58245 | 1224 ft | 0 kts | 105° |
| 2026-04-28 20:26 | -11.87928 | -55.58248 | 1224 ft | 2 kts | 105° |
| 2026-04-28 20:26 | -11.87924 | -55.58263 | 1224 ft | 2 kts | 116° |
| 2026-04-28 20:27 | -11.87916 | -55.58275 | 1224 ft | 2 kts | 133° |
| 2026-04-28 20:27 | -11.87904 | -55.58285 | 1224 ft | 2 kts | 150° |
| 2026-04-28 20:27 | -11.87890 | -55.58290 | 1224 ft | 2 kts | 167° |
| 2026-04-28 20:27 | -11.87875 | -55.58293 | 1224 ft | 2 kts | 177° |
| 2026-04-28 20:28 | -11.87860 | -55.58292 | 1224 ft | 2 kts | 189° |
| 2026-04-28 20:28 | -11.87845 | -55.58289 | 1224 ft | 2 kts | 196° |
| 2026-04-28 20:28 | -11.87830 | -55.58285 | 1224 ft | 2 kts | 194° |
| 2026-04-28 20:28 | -11.87819 | -55.58282 | 1224 ft | 0 kts | 194° |
| 2026-04-28 20:31 | -11.87825 | -55.58284 | 1224 ft | 1 kts | 194° |
| 2026-04-28 20:31 | -11.87841 | -55.58288 | 1224 ft | 3 kts | 196° |
| 2026-04-28 20:31 | -11.87850 | -55.58306 | 1224 ft | 4 kts | 281° |
| 2026-04-28 20:31 | -11.87842 | -55.58338 | 1224 ft | 5 kts | 284° |
| 2026-04-28 20:32 | -11.87831 | -55.58378 | 1224 ft | 6 kts | 285° |
| 2026-04-28 20:32 | -11.87819 | -55.58423 | 1224 ft | 7 kts | 285° |
| 2026-04-28 20:32 | -11.87816 | -55.58446 | 1224 ft | 1 kts | 238° |
| 2026-04-28 20:32 | -11.87827 | -55.58450 | 1224 ft | 0 kts | 196° |
| 2026-04-28 20:33 | -11.87856 | -55.58459 | 1224 ft | 27 kts | 195° |
| 2026-04-28 20:33 | -11.88342 | -55.58590 | 1225 ft | 112 kts | 195° |
| 2026-04-28 20:33 | -11.89320 | -55.58853 | 1321 ft | 166 kts | 195° |
| 2026-04-28 20:33 | -11.90427 | -55.59125 | 2020 ft | 162 kts | 184° |
| 2026-04-28 20:34 | -11.91439 | -55.58781 | 2661 ft | 157 kts | 132° |
| 2026-04-28 20:34 | -11.92006 | -55.57841 | 3099 ft | 160 kts | 112° |
| 2026-04-28 20:34 | -11.92487 | -55.56746 | 3386 ft | 181 kts | 111° |
| 2026-04-28 20:34 | -11.93062 | -55.55524 | 3759 ft | 199 kts | 115° |
| 2026-04-28 20:35 | -11.93741 | -55.54241 | 4253 ft | 213 kts | 117° |
| 2026-04-28 20:35 | -11.94535 | -55.52872 | 4613 ft | 236 kts | 118° |
| 2026-04-28 20:35 | -11.95421 | -55.51373 | 5060 ft | 256 kts | 119° |
| 2026-04-28 20:35 | -11.96384 | -55.49784 | 5664 ft | 270 kts | 121° |
| 2026-04-28 20:36 | -11.97487 | -55.48231 | 6509 ft | 273 kts | 126° |
| 2026-04-28 20:36 | -11.98730 | -55.46765 | 7359 ft | 276 kts | 130° |
| 2026-04-28 20:36 | -12.00010 | -55.45325 | 8142 ft | 280 kts | 130° |
| 2026-04-28 20:36 | -12.01332 | -55.43846 | 8937 ft | 284 kts | 130° |
| 2026-04-28 20:37 | -12.02665 | -55.42354 | 9722 ft | 287 kts | 130° |
| 2026-04-28 20:37 | -12.04017 | -55.40839 | 10418 ft | 293 kts | 130° |
| 2026-04-28 20:37 | -12.05413 | -55.39273 | 10978 ft | 303 kts | 130° |
| 2026-04-28 20:37 | -12.06839 | -55.37670 | 11650 ft | 307 kts | 130° |
| 2026-04-28 20:38 | -12.08282 | -55.36050 | 12344 ft | 310 kts | 130° |
| 2026-04-28 20:38 | -12.09740 | -55.34412 | 13002 ft | 314 kts | 130° |
| 2026-04-28 20:38 | -12.11216 | -55.32753 | 13636 ft | 318 kts | 130° |
| 2026-04-28 20:38 | -12.12710 | -55.31075 | 14265 ft | 321 kts | 130° |
| 2026-04-28 20:39 | -12.14220 | -55.29377 | 14877 ft | 325 kts | 130° |
| 2026-04-28 20:39 | -12.15748 | -55.27656 | 15461 ft | 329 kts | 130° |
| 2026-04-28 20:39 | -12.17297 | -55.25913 | 16037 ft | 333 kts | 130° |
| 2026-04-28 20:39 | -12.18842 | -55.24175 | 16592 ft | 337 kts | 130° |
| 2026-04-28 20:40 | -12.20427 | -55.22390 | 17149 ft | 341 kts | 130° |
| 2026-04-28 20:40 | -12.22026 | -55.20589 | 17713 ft | 344 kts | 130° |
| 2026-04-28 20:40 | -12.23637 | -55.18775 | 18305 ft | 346 kts | 130° |
| 2026-04-28 20:40 | -12.25258 | -55.16948 | 18875 ft | 348 kts | 130° |
| 2026-04-28 20:41 | -12.26887 | -55.15111 | 19423 ft | 350 kts | 130° |
| 2026-04-28 20:41 | -12.28531 | -55.13258 | 19959 ft | 353 kts | 130° |
| 2026-04-28 20:41 | -12.30187 | -55.11389 | 20495 ft | 356 kts | 130° |
| 2026-04-28 20:41 | -12.31856 | -55.09507 | 21031 ft | 359 kts | 129° |
| 2026-04-28 20:42 | -12.33536 | -55.07612 | 21570 ft | 361 kts | 130° |
| 2026-04-28 20:42 | -12.35219 | -55.05699 | 22108 ft | 363 kts | 127° |
| 2026-04-28 20:42 | -12.36721 | -55.03630 | 22640 ft | 363 kts | 120° |
| 2026-04-28 20:42 | -12.37934 | -55.01367 | 23151 ft | 364 kts | 112° |
| 2026-04-28 20:43 | -12.38914 | -54.98969 | 23637 ft | 367 kts | 109° |
| 2026-04-28 20:43 | -12.39836 | -54.96563 | 24101 ft | 371 kts | 109° |
| 2026-04-28 20:43 | -12.40776 | -54.94096 | 24571 ft | 374 kts | 109° |
| 2026-04-28 20:43 | -12.41730 | -54.91606 | 25033 ft | 378 kts | 109° |
| 2026-04-28 20:44 | -12.42697 | -54.89095 | 25490 ft | 382 kts | 109° |
| 2026-04-28 20:44 | -12.43675 | -54.86562 | 25942 ft | 385 kts | 109° |
| 2026-04-28 20:44 | -12.44664 | -54.84007 | 26380 ft | 388 kts | 109° |
| 2026-04-28 20:44 | -12.45661 | -54.81430 | 26816 ft | 392 kts | 109° |
| 2026-04-28 20:45 | -12.46668 | -54.78831 | 27232 ft | 395 kts | 109° |
| 2026-04-28 20:45 | -12.47685 | -54.76208 | 27632 ft | 399 kts | 109° |
| 2026-04-28 20:45 | -12.48708 | -54.73562 | 28019 ft | 402 kts | 109° |
| 2026-04-28 20:45 | -12.49741 | -54.70894 | 28402 ft | 405 kts | 109° |
| 2026-04-28 20:46 | -12.50779 | -54.68207 | 28791 ft | 408 kts | 109° |
| 2026-04-28 20:46 | -12.51825 | -54.65503 | 29173 ft | 410 kts | 109° |
| 2026-04-28 20:46 | -12.52876 | -54.62782 | 29550 ft | 413 kts | 109° |
| 2026-04-28 20:46 | -12.53917 | -54.60087 | 29911 ft | 415 kts | 109° |
| 2026-04-28 20:47 | -12.54977 | -54.57336 | 30266 ft | 417 kts | 109° |
| 2026-04-28 20:47 | -12.56043 | -54.54570 | 30602 ft | 419 kts | 109° |
| 2026-04-28 20:47 | -12.57114 | -54.51788 | 30923 ft | 421 kts | 109° |
| 2026-04-28 20:47 | -12.58190 | -54.48993 | 31246 ft | 424 kts | 109° |
| 2026-04-28 20:48 | -12.59271 | -54.46181 | 31553 ft | 426 kts | 109° |
| 2026-04-28 20:48 | -12.60357 | -54.43356 | 31843 ft | 428 kts | 109° |
| 2026-04-28 20:48 | -12.61449 | -54.40513 | 32153 ft | 430 kts | 109° |
| 2026-04-28 20:48 | -12.62541 | -54.37669 | 32543 ft | 429 kts | 109° |
| 2026-04-28 20:49 | -12.63631 | -54.34831 | 32984 ft | 428 kts | 109° |
| 2026-04-28 20:49 | -12.64716 | -54.32001 | 33437 ft | 427 kts | 109° |
| 2026-04-28 20:49 | -12.65800 | -54.29182 | 33892 ft | 425 kts | 110° |
| 2026-04-28 20:49 | -12.66883 | -54.26368 | 34329 ft | 424 kts | 110° |
| 2026-04-28 20:50 | -12.67962 | -54.23565 | 34742 ft | 423 kts | 110° |
| 2026-04-28 20:50 | -12.69037 | -54.20770 | 35140 ft | 422 kts | 110° |
| 2026-04-28 20:50 | -12.70108 | -54.17981 | 35513 ft | 421 kts | 110° |
| 2026-04-28 20:50 | -12.71178 | -54.15193 | 35836 ft | 421 kts | 110° |
| 2026-04-28 20:51 | -12.72234 | -54.12439 | 36083 ft | 422 kts | 110° |
| 2026-04-28 20:51 | -12.73308 | -54.09635 | 36305 ft | 424 kts | 110° |
| 2026-04-28 20:51 | -12.74387 | -54.06820 | 36528 ft | 426 kts | 110° |
| 2026-04-28 20:51 | -12.75118 | -54.04912 | 36683 ft | 427 kts | 110° |
| 2026-04-28 20:52 | -12.76554 | -54.01160 | 36885 ft | 430 kts | 110° |
| 2026-04-28 20:52 | -12.78764 | -53.95383 | 36894 ft | 441 kts | 110° |
| 2026-04-28 20:53 | -12.82182 | -53.86447 | 36894 ft | 457 kts | 110° |
| 2026-04-28 20:53 | -12.84513 | -53.80344 | 36890 ft | 462 kts | 110° |
| 2026-04-28 20:54 | -12.86836 | -53.74255 | 36894 ft | 462 kts | 110° |
| 2026-04-28 20:54 | -12.89173 | -53.68121 | 36894 ft | 462 kts | 110° |
| 2026-04-28 20:55 | -12.91507 | -53.61988 | 36886 ft | 462 kts | 110° |
| 2026-04-28 20:55 | -12.93838 | -53.55858 | 36886 ft | 462 kts | 110° |
| 2026-04-28 20:56 | -12.96134 | -53.49717 | 36882 ft | 462 kts | 108° |
| 2026-04-28 20:56 | -12.98142 | -53.43475 | 36890 ft | 461 kts | 107° |
| 2026-04-28 20:57 | -13.00114 | -53.37220 | 36891 ft | 461 kts | 107° |
| 2026-04-28 20:57 | -13.02078 | -53.30991 | 36897 ft | 461 kts | 107° |
| 2026-04-28 20:58 | -13.04048 | -53.24746 | 36895 ft | 460 kts | 107° |
| 2026-04-28 20:58 | -13.06016 | -53.18502 | 36896 ft | 460 kts | 107° |
| 2026-04-28 20:59 | -13.07969 | -53.12306 | 36895 ft | 460 kts | 107° |
| 2026-04-28 20:59 | -13.09934 | -53.06063 | 36892 ft | 460 kts | 107° |
| 2026-04-28 21:00 | -13.11906 | -52.99791 | 36892 ft | 460 kts | 106° |
| 2026-04-28 21:00 | -13.13850 | -52.93599 | 36893 ft | 460 kts | 107° |
| 2026-04-28 21:01 | -13.15807 | -52.87359 | 36896 ft | 460 kts | 107° |
| 2026-04-28 21:01 | -13.17765 | -52.81113 | 36898 ft | 460 kts | 107° |
| 2026-04-28 21:02 | -13.19725 | -52.74859 | 36901 ft | 461 kts | 107° |
| 2026-04-28 21:02 | -13.21684 | -52.68593 | 36905 ft | 462 kts | 107° |
| 2026-04-28 21:03 | -13.23642 | -52.62322 | 36915 ft | 462 kts | 107° |
| 2026-04-28 21:03 | -13.25590 | -52.56081 | 36926 ft | 462 kts | 107° |
| 2026-04-28 21:04 | -13.27521 | -52.49789 | 36927 ft | 462 kts | 105° |
| 2026-04-28 21:04 | -13.28958 | -52.43372 | 36931 ft | 462 kts | 100° |
| 2026-04-28 21:05 | -13.30136 | -52.36895 | 36929 ft | 461 kts | 99° |
| 2026-04-28 21:05 | -13.31305 | -52.30447 | 36929 ft | 462 kts | 99° |
| 2026-04-28 21:06 | -13.32481 | -52.23971 | 36927 ft | 462 kts | 99° |
| 2026-04-28 21:06 | -13.33658 | -52.17495 | 36932 ft | 462 kts | 99° |
| 2026-04-28 21:07 | -13.34834 | -52.11015 | 36931 ft | 462 kts | 99° |
| 2026-04-28 21:07 | -13.36007 | -52.04581 | 36932 ft | 462 kts | 101° |
| 2026-04-28 21:08 | -13.37416 | -51.98147 | 36937 ft | 462 kts | 102° |
| 2026-04-28 21:08 | -13.38856 | -51.91731 | 36938 ft | 462 kts | 102° |
| 2026-04-28 21:09 | -13.40287 | -51.85317 | 36938 ft | 461 kts | 102° |
| 2026-04-28 21:09 | -13.41714 | -51.78909 | 36936 ft | 461 kts | 102° |
| 2026-04-28 21:10 | -13.43137 | -51.72501 | 36940 ft | 461 kts | 102° |
| 2026-04-28 21:10 | -13.44560 | -51.66088 | 36929 ft | 461 kts | 102° |
| 2026-04-28 21:11 | -13.45974 | -51.59711 | 36927 ft | 462 kts | 102° |
| 2026-04-28 21:11 | -13.47397 | -51.53280 | 36923 ft | 462 kts | 102° |
| 2026-04-28 21:12 | -13.48816 | -51.46858 | 36910 ft | 461 kts | 102° |
| 2026-04-28 21:12 | -13.50227 | -51.40455 | 36913 ft | 460 kts | 102° |
| 2026-04-28 21:13 | -13.51664 | -51.34062 | 36910 ft | 460 kts | 104° |
| 2026-04-28 21:13 | -13.53627 | -51.27851 | 36913 ft | 460 kts | 111° |
| 2026-04-28 21:14 | -13.56335 | -51.21886 | 36903 ft | 462 kts | 118° |
| 2026-04-28 21:14 | -13.59737 | -51.16281 | 36893 ft | 463 kts | 123° |
| 2026-04-28 21:15 | -13.63404 | -51.10848 | 36886 ft | 462 kts | 124° |
| 2026-04-28 21:15 | -13.67069 | -51.05420 | 36879 ft | 462 kts | 124° |
| 2026-04-28 21:16 | -13.70694 | -51.00032 | 36874 ft | 461 kts | 124° |
| 2026-04-28 21:16 | -13.74338 | -50.94609 | 36874 ft | 460 kts | 124° |
| 2026-04-28 21:17 | -13.77976 | -50.89185 | 36875 ft | 460 kts | 124° |
| 2026-04-28 21:17 | -13.81617 | -50.83754 | 36878 ft | 461 kts | 124° |
| 2026-04-28 21:18 | -13.85263 | -50.78313 | 36882 ft | 462 kts | 124° |
| 2026-04-28 21:18 | -13.88918 | -50.72856 | 36885 ft | 463 kts | 124° |
| 2026-04-28 21:19 | -13.92569 | -50.67399 | 36892 ft | 462 kts | 124° |
| 2026-04-28 21:19 | -13.96214 | -50.61951 | 36902 ft | 462 kts | 123° |
| 2026-04-28 21:20 | -13.99828 | -50.56541 | 36902 ft | 461 kts | 124° |
| 2026-04-28 21:20 | -14.03471 | -50.51086 | 36901 ft | 462 kts | 124° |
| 2026-04-28 21:21 | -14.07112 | -50.45630 | 36899 ft | 462 kts | 124° |
| 2026-04-28 21:21 | -14.10742 | -50.40185 | 36904 ft | 463 kts | 124° |
| 2026-04-28 21:22 | -14.14401 | -50.34699 | 36907 ft | 463 kts | 124° |
| 2026-04-28 21:22 | -14.17447 | -50.30127 | 36910 ft | 463 kts | 124° |
| 2026-04-28 21:23 | -14.21681 | -50.23767 | 36912 ft | 463 kts | 124° |
| 2026-04-28 21:23 | -14.25323 | -50.18293 | 36915 ft | 463 kts | 123° |
| 2026-04-28 21:24 | -14.28969 | -50.12806 | 36919 ft | 463 kts | 124° |
| 2026-04-28 21:24 | -14.32614 | -50.07319 | 36927 ft | 464 kts | 124° |
| 2026-04-28 21:25 | -14.36237 | -50.01863 | 36933 ft | 464 kts | 124° |
| 2026-04-28 21:25 | -14.39890 | -49.96356 | 36939 ft | 464 kts | 124° |
| 2026-04-28 21:26 | -14.43536 | -49.90857 | 36942 ft | 464 kts | 124° |
| 2026-04-28 21:26 | -14.47264 | -49.85423 | 36941 ft | 464 kts | 128° |
| 2026-04-28 21:27 | -14.51429 | -49.80321 | 36939 ft | 465 kts | 130° |
| 2026-04-28 21:27 | -14.55616 | -49.75238 | 36937 ft | 465 kts | 130° |
| 2026-04-28 21:28 | -14.59742 | -49.70159 | 36940 ft | 465 kts | 129° |
| 2026-04-28 21:28 | -14.63892 | -49.65022 | 36954 ft | 465 kts | 129° |
| 2026-04-28 21:29 | -14.68036 | -49.59882 | 36975 ft | 466 kts | 129° |
| 2026-04-28 21:29 | -14.72188 | -49.54732 | 36733 ft | 467 kts | 129° |
| 2026-04-28 21:30 | -14.74273 | -49.52164 | 36439 ft | 467 kts | 130° |
| 2026-04-28 21:30 | -14.76368 | -49.49600 | 36146 ft | 467 kts | 130° |
| 2026-04-28 21:30 | -14.78466 | -49.47031 | 35796 ft | 468 kts | 129° |
| 2026-04-28 21:30 | -14.80564 | -49.44458 | 35326 ft | 469 kts | 129° |
| 2026-04-28 21:31 | -14.82665 | -49.41878 | 34755 ft | 470 kts | 129° |
| 2026-04-28 21:31 | -14.84771 | -49.39288 | 34111 ft | 471 kts | 129° |
| 2026-04-28 21:31 | -14.86877 | -49.36695 | 33449 ft | 472 kts | 129° |
| 2026-04-28 21:31 | -14.88956 | -49.34136 | 32769 ft | 471 kts | 129° |
| 2026-04-28 21:32 | -14.91058 | -49.31548 | 32146 ft | 468 kts | 129° |
| 2026-04-28 21:32 | -14.93144 | -49.28983 | 31535 ft | 465 kts | 129° |
| 2026-04-28 21:32 | -14.95218 | -49.26437 | 30963 ft | 461 kts | 128° |
| 2026-04-28 21:32 | -14.97276 | -49.23910 | 30404 ft | 457 kts | 128° |
| 2026-04-28 21:33 | -14.99311 | -49.21406 | 29849 ft | 453 kts | 128° |
| 2026-04-28 21:33 | -15.01333 | -49.18916 | 29298 ft | 450 kts | 128° |
| 2026-04-28 21:33 | -15.03336 | -49.16447 | 28748 ft | 446 kts | 128° |
| 2026-04-28 21:33 | -15.05323 | -49.13996 | 28188 ft | 443 kts | 128° |
| 2026-04-28 21:34 | -15.07265 | -49.11600 | 27663 ft | 439 kts | 128° |
| 2026-04-28 21:34 | -15.09220 | -49.09188 | 27138 ft | 435 kts | 128° |
| 2026-04-28 21:34 | -15.11173 | -49.06776 | 26593 ft | 432 kts | 128° |
| 2026-04-28 21:34 | -15.13084 | -49.04416 | 26068 ft | 428 kts | 127° |
| 2026-04-28 21:35 | -15.14978 | -49.02074 | 25545 ft | 424 kts | 127° |
| 2026-04-28 21:35 | -15.16866 | -48.99740 | 25020 ft | 421 kts | 127° |
| 2026-04-28 21:35 | -15.18736 | -48.97427 | 24495 ft | 417 kts | 127° |
| 2026-04-28 21:35 | -15.20592 | -48.95130 | 23972 ft | 414 kts | 127° |
| 2026-04-28 21:36 | -15.22432 | -48.92851 | 23456 ft | 411 kts | 127° |
| 2026-04-28 21:36 | -15.24255 | -48.90593 | 22924 ft | 408 kts | 127° |
| 2026-04-28 21:36 | -15.26069 | -48.88348 | 22398 ft | 405 kts | 127° |
| 2026-04-28 21:36 | -15.27870 | -48.86118 | 21891 ft | 402 kts | 127° |
| 2026-04-28 21:37 | -15.29656 | -48.83907 | 21409 ft | 398 kts | 127° |
| 2026-04-28 21:37 | -15.31428 | -48.81717 | 20936 ft | 395 kts | 127° |
| 2026-04-28 21:37 | -15.33183 | -48.79546 | 20461 ft | 391 kts | 127° |
| 2026-04-28 21:37 | -15.34922 | -48.77393 | 19977 ft | 388 kts | 127° |
| 2026-04-28 21:38 | -15.36649 | -48.75254 | 19482 ft | 386 kts | 127° |
| 2026-04-28 21:38 | -15.38338 | -48.73160 | 19008 ft | 383 kts | 127° |
| 2026-04-28 21:38 | -15.40039 | -48.71051 | 18530 ft | 380 kts | 127° |
| 2026-04-28 21:38 | -15.41729 | -48.68955 | 18053 ft | 378 kts | 127° |
| 2026-04-28 21:39 | -15.43418 | -48.66859 | 17571 ft | 375 kts | 127° |
| 2026-04-28 21:39 | -15.45089 | -48.64784 | 17103 ft | 372 kts | 127° |
| 2026-04-28 21:39 | -15.46743 | -48.62730 | 16661 ft | 369 kts | 127° |
| 2026-04-28 21:39 | -15.48358 | -48.60722 | 16241 ft | 366 kts | 128° |
| 2026-04-28 21:40 | -15.49980 | -48.58707 | 15812 ft | 362 kts | 128° |
| 2026-04-28 21:40 | -15.51586 | -48.56710 | 15383 ft | 358 kts | 128° |
| 2026-04-28 21:40 | -15.53176 | -48.54733 | 14955 ft | 355 kts | 128° |
| 2026-04-28 21:40 | -15.54751 | -48.52775 | 14533 ft | 351 kts | 128° |
| 2026-04-28 21:41 | -15.56310 | -48.50835 | 14104 ft | 348 kts | 128° |
| 2026-04-28 21:41 | -15.57852 | -48.48915 | 13682 ft | 345 kts | 128° |
| 2026-04-28 21:41 | -15.59379 | -48.47014 | 13264 ft | 341 kts | 128° |
| 2026-04-28 21:41 | -15.60891 | -48.45132 | 12846 ft | 338 kts | 128° |
| 2026-04-28 21:42 | -15.62390 | -48.43265 | 12413 ft | 336 kts | 128° |
| 2026-04-28 21:42 | -15.63880 | -48.41410 | 11974 ft | 333 kts | 128° |
| 2026-04-28 21:42 | -15.65358 | -48.39570 | 11543 ft | 331 kts | 128° |
| 2026-04-28 21:42 | -15.66812 | -48.37760 | 11106 ft | 329 kts | 128° |
| 2026-04-28 21:43 | -15.68277 | -48.35945 | 10663 ft | 327 kts | 129° |
| 2026-04-28 21:43 | -15.69744 | -48.34127 | 10222 ft | 325 kts | 128° |
| 2026-04-28 21:43 | -15.71196 | -48.32327 | 9884 ft | 319 kts | 128° |
| 2026-04-28 21:43 | -15.72579 | -48.30611 | 9709 ft | 308 kts | 128° |
| 2026-04-28 21:44 | -15.73923 | -48.28944 | 9466 ft | 292 kts | 128° |
| 2026-04-28 21:44 | -15.75187 | -48.27376 | 9242 ft | 272 kts | 128° |
| 2026-04-28 21:44 | -15.76361 | -48.25918 | 9118 ft | 255 kts | 128° |
| 2026-04-28 21:44 | -15.77455 | -48.24558 | 9013 ft | 234 kts | 128° |
| 2026-04-28 21:45 | -15.78500 | -48.23344 | 8946 ft | 220 kts | 140° |
| 2026-04-28 21:45 | -15.79867 | -48.22649 | 8887 ft | 221 kts | 167° |
| 2026-04-28 21:45 | -15.81403 | -48.22423 | 8858 ft | 222 kts | 171° |
| 2026-04-28 21:45 | -15.82945 | -48.22242 | 8737 ft | 222 kts | 171° |
| 2026-04-28 21:46 | -15.84455 | -48.21945 | 8556 ft | 218 kts | 151° |
| 2026-04-28 21:46 | -15.85555 | -48.20954 | 8386 ft | 212 kts | 117° |
| 2026-04-28 21:46 | -15.86187 | -48.19571 | 8243 ft | 211 kts | 112° |
| 2026-04-28 21:46 | -15.86788 | -48.18176 | 8049 ft | 210 kts | 112° |
| 2026-04-28 21:47 | -15.87336 | -48.16772 | 7818 ft | 209 kts | 105° |
| 2026-04-28 21:47 | -15.87630 | -48.15304 | 7542 ft | 207 kts | 94° |
| 2026-04-28 21:47 | -15.87678 | -48.13806 | 7237 ft | 208 kts | 88° |
| 2026-04-28 21:47 | -15.87623 | -48.12301 | 6900 ft | 210 kts | 86° |
| 2026-04-28 21:48 | -15.87533 | -48.10818 | 6724 ft | 200 kts | 85° |
| 2026-04-28 21:48 | -15.87438 | -48.09402 | 6450 ft | 196 kts | 85° |
| 2026-04-28 21:48 | -15.87343 | -48.08004 | 6178 ft | 192 kts | 85° |
| 2026-04-28 21:48 | -15.87251 | -48.06638 | 5919 ft | 187 kts | 86° |
| 2026-04-28 21:49 | -15.87162 | -48.05306 | 5672 ft | 182 kts | 86° |
| 2026-04-28 21:49 | -15.87078 | -48.04023 | 5473 ft | 174 kts | 86° |
| 2026-04-28 21:49 | -15.86999 | -48.02821 | 5244 ft | 162 kts | 86° |
| 2026-04-28 21:49 | -15.86925 | -48.01698 | 5033 ft | 151 kts | 86° |
| 2026-04-28 21:50 | -15.86853 | -48.00606 | 4864 ft | 151 kts | 87° |
| 2026-04-28 21:50 | -15.86783 | -47.99531 | 4688 ft | 150 kts | 87° |
| 2026-04-28 21:50 | -15.86712 | -47.98448 | 4506 ft | 150 kts | 87° |
| 2026-04-28 21:50 | -15.86640 | -47.97369 | 4325 ft | 149 kts | 87° |
| 2026-04-28 21:51 | -15.86574 | -47.96293 | 4136 ft | 149 kts | 88° |
| 2026-04-28 21:51 | -15.86510 | -47.95235 | 3944 ft | 148 kts | 88° |
| 2026-04-28 21:51 | -15.86435 | -47.94165 | 3743 ft | 148 kts | 88° |
| 2026-04-28 21:51 | -15.86369 | -47.93101 | 3573 ft | 147 kts | 88° |
| 2026-04-28 21:52 | -15.86307 | -47.92049 | 3472 ft | 139 kts | 88° |
| 2026-04-28 21:52 | -15.86254 | -47.91221 | 3478 ft | 90 kts | 86° |
| 2026-04-28 21:52 | -15.86231 | -47.90885 | 3485 ft | 7 kts | 90° |
| 2026-04-28 21:52 | -15.86253 | -47.90843 | 3487 ft | 6 kts | 132° |
| 2026-04-28 21:53 | -15.86286 | -47.90808 | 3489 ft | 7 kts | 134° |
| 2026-04-28 21:53 | -15.86325 | -47.90766 | 3490 ft | 8 kts | 131° |
| 2026-04-28 21:53 | -15.86367 | -47.90717 | 3491 ft | 9 kts | 135° |
| 2026-04-28 21:53 | -15.86416 | -47.90737 | 3489 ft | 11 kts | 261° |
| 2026-04-28 21:54 | -15.86422 | -47.90819 | 3491 ft | 11 kts | 266° |
| 2026-04-28 21:54 | -15.86427 | -47.90903 | 3490 ft | 12 kts | 266° |
| 2026-04-28 21:54 | -15.86433 | -47.91002 | 3488 ft | 14 kts | 266° |
| 2026-04-28 21:54 | -15.86440 | -47.91114 | 3485 ft | 15 kts | 266° |
| 2026-04-28 21:55 | -15.86448 | -47.91231 | 3483 ft | 16 kts | 266° |
| 2026-04-28 21:55 | -15.86454 | -47.91341 | 3482 ft | 13 kts | 267° |
| 2026-04-28 21:55 | -15.86460 | -47.91428 | 3480 ft | 11 kts | 265° |
| 2026-04-28 21:55 | -15.86467 | -47.91512 | 3479 ft | 11 kts | 266° |
| 2026-04-28 21:56 | -15.86472 | -47.91595 | 3480 ft | 11 kts | 263° |
| 2026-04-28 21:56 | -15.86523 | -47.91632 | 3481 ft | 8 kts | 181° |
| 2026-04-28 21:56 | -15.86578 | -47.91628 | 3482 ft | 7 kts | 176° |
| 2026-04-28 21:56 | -15.86622 | -47.91625 | 3483 ft | 5 kts | 176° |
| 2026-04-28 21:57 | -15.86654 | -47.91623 | 3484 ft | 3 kts | 183° |
| 2026-04-28 21:57 | -15.86673 | -47.91642 | 3484 ft | 5 kts | 253° |
| 2026-04-28 21:57 | -15.86675 | -47.91684 | 3484 ft | 5 kts | 280° |
| 2026-04-28 21:57 | -15.86644 | -47.91716 | 3483 ft | 7 kts | 330° |
| 2026-04-28 21:58 | -15.86606 | -47.91762 | 3482 ft | 9 kts | 282° |
| 2026-04-28 21:58 | -15.86608 | -47.91819 | 3482 ft | 7 kts | 265° |
| 2026-04-28 21:58 | -15.86631 | -47.91848 | 3483 ft | 5 kts | 182° |
| 2026-04-28 21:58 | -15.86661 | -47.91847 | 3484 ft | 3 kts | 178° |
| 2026-04-28 21:59 | -15.86684 | -47.91846 | 3484 ft | 3 kts | 178° |
| 2026-04-28 21:59 | -15.86700 | -47.91846 | 3485 ft | 1 kts | 179° |
| 2026-04-28 21:59 | -15.86701 | -47.91846 | 3485 ft | 0 kts | 179° |